createdAt,value
2018-11-23T00:00:05.472Z,3.14
2018-11-23T00:01:58.263Z,3.13
2018-11-23T00:02:58.242Z,3.18
2018-11-23T00:04:51.028Z,3.14
2018-11-23T00:05:50.973Z,3.16
2018-11-23T00:07:43.756Z,3.10
2018-11-23T00:08:43.729Z,3.11
2018-11-23T00:10:36.527Z,3.14
2018-11-23T00:11:36.467Z,3.10
2018-11-23T00:13:29.281Z,3.08
2018-11-23T00:14:29.226Z,3.11
2018-11-23T00:16:22.022Z,3.03
2018-11-23T00:17:21.968Z,3.04
2018-11-23T00:19:14.782Z,3.10
2018-11-23T00:20:14.722Z,3.05
2018-11-23T00:22:07.508Z,3.05
2018-11-23T00:23:07.463Z,3.08
2018-11-23T00:25:00.293Z,3.03
2018-11-23T00:26:00.217Z,3.07
2018-11-23T00:27:53.020Z,2.98
2018-11-23T00:28:52.978Z,2.98
2018-11-23T00:30:45.795Z,2.90
2018-11-23T00:31:45.735Z,3.01
2018-11-23T00:33:38.510Z,2.90
2018-11-23T00:34:38.475Z,3.05
2018-11-23T00:36:31.295Z,3.00
2018-11-23T00:37:31.231Z,2.89
2018-11-23T00:39:24.520Z,2.92
2018-11-23T00:40:24.463Z,2.92
2018-11-23T00:42:17.291Z,2.89
2018-11-23T00:43:17.219Z,2.93
2018-11-23T00:45:10.013Z,2.93
2018-11-23T00:46:09.979Z,2.95
2018-11-23T00:48:03.288Z,2.87
2018-11-23T00:49:03.213Z,2.86
2018-11-23T00:50:56.029Z,2.90
2018-11-23T00:51:55.969Z,2.86
2018-11-23T00:53:48.769Z,2.97
2018-11-23T00:54:48.713Z,2.80
2018-11-23T00:56:41.534Z,2.79
2018-11-23T00:57:41.484Z,2.82
2018-11-23T00:59:34.264Z,2.85
2018-11-23T01:00:34.224Z,2.85
2018-11-23T01:02:27.540Z,2.85
2018-11-23T01:03:27.478Z,2.82
2018-11-23T01:05:20.264Z,2.77
2018-11-23T01:06:20.220Z,2.80
2018-11-23T01:08:13.544Z,2.83
2018-11-23T01:09:13.479Z,2.83
2018-11-23T01:11:06.271Z,2.87
2018-11-23T01:12:06.224Z,2.80
2018-11-23T01:13:59.054Z,2.79
2018-11-23T01:14:58.989Z,2.82
2018-11-23T01:16:51.809Z,2.74
2018-11-23T01:17:51.749Z,2.82
2018-11-23T01:19:44.544Z,2.85
2018-11-23T01:20:44.497Z,2.86
2018-11-23T01:22:37.309Z,2.83
2018-11-23T01:23:37.247Z,2.79
2018-11-23T01:25:30.042Z,2.79
2018-11-23T01:26:29.997Z,2.74
2018-11-23T01:28:22.814Z,2.85
2018-11-23T01:29:22.742Z,2.77
2018-11-23T01:31:15.535Z,2.71
2018-11-23T01:32:15.500Z,2.75
2018-11-23T01:34:08.310Z,2.71
2018-11-23T01:35:08.246Z,2.69
2018-11-23T01:37:01.543Z,2.71
2018-11-23T01:38:01.486Z,2.72
2018-11-23T01:39:54.301Z,2.72
2018-11-23T01:40:54.250Z,2.75
2018-11-23T01:42:47.062Z,2.74
2018-11-23T01:43:47.005Z,2.68
2018-11-23T01:45:39.790Z,2.71
2018-11-23T01:46:39.746Z,2.74
2018-11-23T01:48:32.571Z,2.72
2018-11-23T01:49:32.511Z,2.67
2018-11-23T01:51:25.297Z,2.74
2018-11-23T01:52:25.303Z,2.69
2018-11-23T01:54:18.066Z,2.74
2018-11-23T01:55:18.018Z,2.60
2018-11-23T01:57:10.798Z,2.72
2018-11-23T01:58:10.762Z,2.57
2018-11-23T02:00:03.573Z,2.69
2018-11-23T02:01:03.508Z,2.62
2018-11-23T02:02:56.312Z,2.56
2018-11-23T02:03:56.262Z,2.61
2018-11-23T02:05:49.080Z,2.60
2018-11-23T02:06:49.009Z,2.67
2018-11-23T02:08:41.817Z,2.61
2018-11-23T02:09:41.763Z,2.64
2018-11-23T02:11:34.587Z,2.67
2018-11-23T02:12:34.520Z,2.61
2018-11-23T02:14:27.309Z,2.61
2018-11-23T02:15:27.268Z,2.65
2018-11-23T02:17:20.088Z,2.60
2018-11-23T02:18:20.022Z,2.53
2018-11-23T02:20:12.808Z,2.57
2018-11-23T02:21:12.782Z,2.54
2018-11-23T02:23:05.588Z,2.60
2018-11-23T02:24:05.518Z,2.54
2018-11-23T02:25:58.337Z,2.56
2018-11-23T02:26:58.279Z,2.56
2018-11-23T02:28:51.063Z,2.56
2018-11-23T02:29:51.023Z,2.50
2018-11-23T02:31:43.829Z,2.43
2018-11-23T02:32:43.777Z,2.46
2018-11-23T02:34:36.559Z,2.47
2018-11-23T02:35:36.524Z,2.53
2018-11-23T02:37:29.332Z,2.46
2018-11-23T02:38:29.285Z,2.61
2018-11-23T02:40:22.074Z,2.43
2018-11-23T02:41:22.035Z,2.51
2018-11-23T02:43:14.839Z,2.36
2018-11-23T02:44:14.764Z,2.43
2018-11-23T02:46:07.584Z,2.39
2018-11-23T02:47:07.526Z,2.43
2018-11-23T02:49:00.305Z,2.39
2018-11-23T02:50:00.273Z,2.46
2018-11-23T02:51:53.094Z,2.36
2018-11-23T02:52:53.016Z,2.43
2018-11-23T02:54:45.814Z,2.38
2018-11-23T02:55:45.780Z,2.43
2018-11-23T02:57:38.590Z,2.47
2018-11-23T02:58:38.525Z,2.32
2018-11-23T03:00:31.319Z,2.49
2018-11-23T03:01:31.272Z,2.35
2018-11-23T03:03:24.090Z,2.31
2018-11-23T03:04:24.027Z,2.31
2018-11-23T03:06:16.812Z,2.38
2018-11-23T03:07:16.774Z,2.42
2018-11-23T03:09:09.573Z,2.32
2018-11-23T03:10:09.515Z,2.24
2018-11-23T03:12:02.330Z,2.42
2018-11-23T03:13:02.265Z,2.42
2018-11-23T03:14:55.059Z,2.38
2018-11-23T03:15:55.011Z,2.29
2018-11-23T03:17:47.836Z,2.42
2018-11-23T03:18:47.760Z,2.36
2018-11-23T03:20:40.552Z,2.38
2018-11-23T03:21:40.510Z,2.36
2018-11-23T03:23:33.323Z,2.38
2018-11-23T03:24:33.252Z,2.39
2018-11-23T03:26:26.056Z,2.42
2018-11-23T03:27:26.012Z,2.47
2018-11-23T03:29:18.822Z,2.49
2018-11-23T03:30:18.761Z,2.54
2018-11-23T03:32:11.552Z,2.62
2018-11-23T03:33:11.514Z,2.68
2018-11-23T03:35:04.322Z,2.60
2018-11-23T03:36:04.259Z,2.72
2018-11-23T03:37:57.051Z,2.75
2018-11-23T03:38:57.008Z,2.77
2018-11-23T03:40:50.327Z,2.80
2018-11-23T03:41:50.266Z,2.87
2018-11-23T03:43:43.050Z,2.82
2018-11-23T03:44:43.008Z,2.89
2018-11-23T03:46:35.809Z,2.90
2018-11-23T03:47:35.756Z,2.90
2018-11-23T03:49:28.566Z,3.03
2018-11-23T03:50:28.502Z,3.03
2018-11-23T03:52:21.303Z,3.08
2018-11-23T03:53:21.259Z,3.08
2018-11-23T03:55:14.067Z,3.01
2018-11-23T03:56:14.010Z,3.10
2018-11-23T03:58:06.802Z,3.01
2018-11-23T03:59:06.752Z,3.13
2018-11-23T04:00:59.559Z,3.13
2018-11-23T04:01:59.492Z,3.13
2018-11-23T04:03:52.294Z,3.19
2018-11-23T04:04:52.257Z,3.18
2018-11-23T04:06:45.569Z,3.22
2018-11-23T04:07:45.500Z,3.31
2018-11-23T04:09:38.793Z,3.25
2018-11-23T04:10:38.752Z,3.26
2018-11-23T04:12:31.567Z,3.28
2018-11-23T04:13:31.511Z,3.25
2018-11-23T04:15:24.319Z,3.21
2018-11-23T04:16:24.274Z,3.26
2018-11-23T04:18:17.053Z,3.21
2018-11-23T04:19:17.020Z,3.19
2018-11-23T04:21:10.333Z,3.31
2018-11-23T04:22:10.268Z,3.26
2018-11-23T04:24:03.063Z,3.18
2018-11-23T04:25:03.028Z,3.14
2018-11-23T04:26:55.858Z,3.18
2018-11-23T04:27:55.797Z,3.18
2018-11-23T04:29:48.584Z,3.11
2018-11-23T04:30:48.540Z,3.11
2018-11-23T04:32:41.351Z,3.08
2018-11-23T04:33:41.294Z,3.10
2018-11-23T04:35:34.598Z,3.10
2018-11-23T04:36:34.534Z,3.07
2018-11-23T04:38:27.818Z,3.03
2018-11-23T04:39:27.775Z,3.10
2018-11-23T04:41:20.588Z,3.08
2018-11-23T04:42:20.523Z,3.10
2018-11-23T04:44:13.314Z,3.07
2018-11-23T04:45:13.274Z,3.08
2018-11-23T04:47:06.078Z,3.04
2018-11-23T04:48:06.016Z,3.14
2018-11-23T04:49:58.815Z,3.08
2018-11-23T04:50:58.765Z,3.08
2018-11-23T04:52:51.579Z,3.11
2018-11-23T04:53:51.519Z,3.05
2018-11-23T04:55:44.806Z,3.11
2018-11-23T04:56:44.770Z,3.10
2018-11-23T04:58:37.587Z,3.10
2018-11-23T04:59:37.521Z,3.07
2018-11-23T05:01:30.824Z,3.13
2018-11-23T05:02:30.768Z,3.10
2018-11-23T05:04:23.581Z,3.05
2018-11-23T05:05:23.504Z,3.05
2018-11-23T05:07:16.325Z,3.08
2018-11-23T05:08:16.261Z,3.11
2018-11-23T05:10:09.051Z,3.03
2018-11-23T05:11:09.016Z,3.04
2018-11-23T05:13:01.842Z,3.11
2018-11-23T05:14:01.755Z,2.98
2018-11-23T05:15:54.552Z,3.05
2018-11-23T05:16:54.506Z,3.05
2018-11-23T05:18:47.328Z,3.03
2018-11-23T05:19:47.251Z,3.04
2018-11-23T05:21:40.051Z,3.01
2018-11-23T05:22:40.006Z,2.97
2018-11-23T05:24:32.811Z,3.00
2018-11-23T05:25:32.755Z,2.92
2018-11-23T05:27:25.546Z,2.98
2018-11-23T05:28:25.515Z,2.87
2018-11-23T05:30:18.306Z,3.01
2018-11-23T05:31:18.257Z,2.92
2018-11-23T05:33:11.062Z,2.97
2018-11-23T05:34:10.992Z,2.98
2018-11-23T05:36:03.789Z,2.93
2018-11-23T05:37:03.749Z,3.00
2018-11-23T05:38:56.562Z,2.97
2018-11-23T05:39:56.502Z,3.00
2018-11-23T05:41:49.303Z,2.98
2018-11-23T05:42:49.251Z,2.90
2018-11-23T05:44:42.066Z,2.95
2018-11-23T05:45:42.002Z,2.92
2018-11-23T05:47:34.791Z,2.90
2018-11-23T05:48:34.746Z,2.92
2018-11-23T05:50:27.558Z,3.00
2018-11-23T05:51:27.501Z,2.93
2018-11-23T05:53:20.291Z,3.03
2018-11-23T05:54:20.246Z,2.95
2018-11-23T05:56:13.061Z,3.01
2018-11-23T05:57:13.029Z,2.92
2018-11-23T05:59:05.814Z,2.93
2018-11-23T06:00:05.749Z,2.86
2018-11-23T06:01:58.557Z,2.89
2018-11-23T06:02:58.496Z,2.95
2018-11-23T06:04:51.311Z,2.92
2018-11-23T06:05:51.251Z,2.95
2018-11-23T06:07:44.041Z,2.97
2018-11-23T06:08:43.999Z,2.89
2018-11-23T06:10:36.812Z,2.87
2018-11-23T06:11:36.746Z,2.89
2018-11-23T06:13:29.538Z,2.89
2018-11-23T06:14:29.498Z,2.86
2018-11-23T06:16:22.304Z,2.92
2018-11-23T06:17:22.249Z,2.89
2018-11-23T06:19:15.034Z,2.98
2018-11-23T06:20:15.051Z,2.86
2018-11-23T06:22:07.846Z,2.86
2018-11-23T06:23:07.754Z,2.83
2018-11-23T06:25:00.571Z,2.87
2018-11-23T06:26:00.504Z,2.87
2018-11-23T06:27:53.297Z,2.90
2018-11-23T06:28:53.249Z,2.79
2018-11-23T06:30:46.074Z,2.86
2018-11-23T06:31:46.009Z,2.79
2018-11-23T06:33:38.797Z,2.85
2018-11-23T06:34:38.758Z,2.83
2018-11-23T06:36:31.578Z,2.74
2018-11-23T06:37:31.499Z,2.79
2018-11-23T06:39:24.300Z,2.82
2018-11-23T06:40:24.245Z,2.74
2018-11-23T06:42:17.063Z,2.85
2018-11-23T06:43:16.998Z,2.74
2018-11-23T06:45:09.798Z,2.75
2018-11-23T06:46:09.758Z,2.77
2018-11-23T06:48:02.555Z,2.71
2018-11-23T06:49:02.489Z,2.68
2018-11-23T06:50:55.289Z,2.72
2018-11-23T06:51:55.244Z,2.71
2018-11-23T06:53:48.075Z,2.67
2018-11-23T06:54:47.990Z,2.75
2018-11-23T06:56:40.778Z,2.62
2018-11-23T06:57:40.746Z,2.62
2018-11-23T06:59:33.549Z,2.71
2018-11-23T07:00:33.496Z,2.69
2018-11-23T07:02:26.316Z,2.61
2018-11-23T07:03:26.240Z,2.69
2018-11-23T07:05:19.021Z,2.67
2018-11-23T07:06:18.990Z,2.67
2018-11-23T07:08:11.800Z,2.64
2018-11-23T07:09:11.740Z,2.68
2018-11-23T07:11:04.523Z,2.72
2018-11-23T07:12:04.490Z,2.64
2018-11-23T07:14:03.750Z,2.71
2018-11-23T07:14:57.231Z,2.75
2018-11-23T07:16:50.031Z,2.71
2018-11-23T07:17:49.987Z,2.74
2018-11-23T07:19:42.800Z,2.75
2018-11-23T07:20:42.731Z,2.75
2018-11-23T07:22:35.527Z,2.79
2018-11-23T07:23:35.489Z,2.79
2018-11-23T07:25:28.295Z,2.86
2018-11-23T07:26:28.244Z,2.80
2018-11-23T07:28:21.050Z,2.75
2018-11-23T07:29:20.985Z,2.87
2018-11-23T07:31:13.776Z,2.86
2018-11-23T07:32:13.741Z,2.87
2018-11-23T07:34:06.542Z,2.92
2018-11-23T07:35:06.490Z,2.92
2018-11-23T07:36:59.275Z,2.89
2018-11-23T07:37:59.237Z,2.92
2018-11-23T07:39:52.053Z,2.95
2018-11-23T07:40:51.986Z,2.98
2018-11-23T07:42:44.786Z,3.01
2018-11-23T07:43:44.733Z,3.01
2018-11-23T07:45:37.562Z,3.04
2018-11-23T07:46:37.488Z,3.01
2018-11-23T07:48:30.276Z,3.05
2018-11-23T07:49:30.232Z,3.10
2018-11-23T07:51:23.062Z,2.97
2018-11-23T07:52:22.996Z,3.08
2018-11-23T07:54:15.806Z,3.08
2018-11-23T07:55:15.734Z,3.11
2018-11-23T07:57:08.533Z,3.03
2018-11-23T07:58:08.497Z,3.10
2018-11-23T08:00:01.312Z,3.13
2018-11-23T08:01:01.238Z,3.16
2018-11-23T08:02:54.032Z,3.21
2018-11-23T08:03:53.997Z,3.19
2018-11-23T08:05:46.798Z,3.19
2018-11-23T08:06:46.738Z,3.11
2018-11-23T08:08:39.536Z,3.18
2018-11-23T08:09:39.492Z,3.14
2018-11-23T08:11:32.302Z,3.16
2018-11-23T08:12:32.228Z,3.25
2018-11-23T08:14:25.022Z,3.18
2018-11-23T08:15:24.986Z,3.23
2018-11-23T08:17:17.803Z,3.25
2018-11-23T08:18:17.732Z,3.32
2018-11-23T08:20:10.524Z,3.34
2018-11-23T08:21:10.484Z,3.32
2018-11-23T08:23:03.297Z,3.42
2018-11-23T08:24:03.222Z,3.40
2018-11-23T08:25:56.058Z,3.44
2018-11-23T08:26:55.978Z,3.51
2018-11-23T08:28:48.773Z,3.51
2018-11-23T08:29:48.739Z,3.53
2018-11-23T08:31:41.549Z,3.51
2018-11-23T08:32:41.482Z,3.55
2018-11-23T08:34:34.278Z,3.62
2018-11-23T08:35:34.229Z,3.58
2018-11-23T08:37:27.188Z,3.58
2018-11-23T08:38:26.977Z,3.70
2018-11-23T08:40:20.268Z,3.84
2018-11-23T08:41:20.228Z,3.74
2018-11-23T08:43:13.048Z,3.81
2018-11-23T08:44:12.978Z,3.91
2018-11-23T08:46:05.779Z,4.08
2018-11-23T08:47:05.739Z,4.10
2018-11-23T08:48:59.044Z,4.16
2018-11-23T08:49:58.973Z,4.24
2018-11-23T08:51:52.265Z,4.40
2018-11-23T08:52:52.230Z,4.42
2018-11-23T08:54:45.050Z,4.59
2018-11-23T08:55:44.974Z,4.58
2018-11-23T08:57:37.797Z,4.68
2018-11-23T08:58:37.723Z,4.70
2018-11-23T09:00:30.531Z,4.84
2018-11-23T09:01:30.483Z,4.93
2018-11-23T09:03:23.307Z,5.08
2018-11-23T09:04:23.244Z,5.18
2018-11-23T09:06:16.040Z,5.28
2018-11-23T09:07:15.989Z,5.35
2018-11-23T09:09:08.809Z,5.43
2018-11-23T09:10:08.749Z,5.46
2018-11-23T09:12:01.539Z,5.66
2018-11-23T09:13:01.521Z,5.65
2018-11-23T09:14:54.315Z,5.82
2018-11-23T09:15:54.261Z,6.01
2018-11-23T09:17:47.056Z,6.02
2018-11-23T09:18:47.020Z,6.12
2018-11-23T09:20:39.834Z,6.22
2018-11-23T09:21:39.773Z,6.19
2018-11-23T09:23:32.577Z,6.41
2018-11-23T09:24:32.515Z,6.42
2018-11-23T09:26:25.314Z,6.59
2018-11-23T09:27:25.275Z,6.59
2018-11-23T09:29:18.096Z,6.69
2018-11-23T09:30:18.047Z,6.63
2018-11-23T09:32:10.890Z,7.36
2018-11-23T09:33:10.786Z,7.57
2018-11-23T09:35:03.639Z,8.37
2018-11-23T09:36:03.555Z,8.76
2018-11-23T09:37:56.862Z,9.61
2018-11-23T09:38:56.807Z,9.94
2018-11-23T09:40:49.633Z,10.33
2018-11-23T09:41:49.570Z,10.49
2018-11-23T09:43:42.876Z,11.22
2018-11-23T09:44:42.828Z,11.63
2018-11-23T09:46:36.164Z,12.12
2018-11-23T09:47:36.101Z,12.22
2018-11-23T09:49:29.427Z,12.12
2018-11-23T09:50:29.374Z,12.07
2018-11-23T09:52:22.182Z,11.83
2018-11-23T09:53:22.133Z,11.65
2018-11-23T09:55:15.466Z,11.41
2018-11-23T09:56:15.408Z,11.29
2018-11-23T09:58:08.226Z,11.26
2018-11-23T09:59:08.182Z,11.23
2018-11-23T10:01:01.502Z,11.07
2018-11-23T10:02:01.447Z,11.08
2018-11-23T10:03:54.744Z,11.11
2018-11-23T10:04:54.740Z,11.02
2018-11-23T10:06:48.028Z,11.02
2018-11-23T10:07:47.991Z,10.97
2018-11-23T10:09:40.766Z,11.05
2018-11-23T10:10:40.746Z,10.99
2018-11-23T10:12:33.558Z,11.02
2018-11-23T10:13:33.497Z,10.96
2018-11-23T10:15:26.825Z,10.81
2018-11-23T10:16:26.763Z,10.75
2018-11-23T10:18:19.564Z,10.71
2018-11-23T10:19:19.529Z,10.67
2018-11-23T10:21:12.352Z,10.64
2018-11-23T10:22:12.299Z,10.67
2018-11-23T10:24:05.606Z,10.53
2018-11-23T10:25:05.551Z,10.67
2018-11-23T10:26:58.399Z,10.96
2018-11-23T10:27:58.318Z,11.23
2018-11-23T10:29:55.153Z,11.75
2018-11-23T10:30:51.084Z,12.18
2018-11-23T10:32:43.909Z,12.62
2018-11-23T10:33:43.867Z,12.87
2018-11-23T10:35:36.672Z,13.27
2018-11-23T10:36:36.653Z,13.62
2018-11-23T10:38:29.975Z,14.51
2018-11-23T10:39:29.913Z,14.84
2018-11-23T10:41:22.782Z,15.62
2018-11-23T10:42:22.747Z,15.95
2018-11-23T10:44:16.015Z,16.66
2018-11-23T10:45:15.980Z,17.01
2018-11-23T10:47:09.313Z,16.39
2018-11-23T10:48:09.263Z,16.68
2018-11-23T10:50:02.585Z,16.42
2018-11-23T10:51:02.560Z,16.12
2018-11-23T10:52:55.382Z,15.47
2018-11-23T10:53:55.346Z,15.76
2018-11-23T10:55:48.644Z,16.56
2018-11-23T10:56:48.647Z,16.35
2018-11-23T10:58:41.968Z,16.39
2018-11-23T10:59:41.894Z,16.91
2018-11-23T11:01:35.235Z,17.90
2018-11-23T11:02:35.200Z,18.43
2018-11-23T11:04:28.515Z,19.07
2018-11-23T11:05:28.464Z,19.07
2018-11-23T11:07:21.778Z,19.63
2018-11-23T11:08:21.755Z,19.88
2018-11-23T11:10:15.132Z,20.18
2018-11-23T11:11:15.044Z,20.21
2018-11-23T11:13:07.881Z,20.51
2018-11-23T11:14:07.829Z,20.69
2018-11-23T11:16:01.164Z,20.78
2018-11-23T11:17:01.126Z,20.65
2018-11-23T11:18:54.470Z,20.34
2018-11-23T11:19:54.421Z,20.29
2018-11-23T11:21:47.239Z,20.28
2018-11-23T11:22:47.210Z,20.56
2018-11-23T11:24:40.555Z,20.96
2018-11-23T11:25:40.491Z,21.07
2018-11-23T11:27:33.329Z,20.82
2018-11-23T11:28:33.304Z,20.74
2018-11-23T11:30:26.643Z,20.99
2018-11-23T11:31:26.589Z,21.15
2018-11-23T11:33:19.905Z,21.14
2018-11-23T11:34:19.871Z,21.03
2018-11-23T11:36:13.217Z,20.74
2018-11-23T11:37:13.175Z,20.74
2018-11-23T11:39:06.511Z,20.90
2018-11-23T11:40:06.452Z,20.69
2018-11-23T11:41:59.776Z,20.63
2018-11-23T11:42:59.746Z,20.77
2018-11-23T11:44:53.072Z,20.72
2018-11-23T11:45:53.018Z,20.72
2018-11-23T11:47:46.340Z,20.22
2018-11-23T11:48:46.323Z,20.22
2018-11-23T11:50:39.660Z,20.28
2018-11-23T11:51:39.610Z,20.16
2018-11-23T11:53:32.916Z,20.18
2018-11-23T11:54:32.887Z,20.21
2018-11-23T11:56:26.221Z,20.31
2018-11-23T11:57:26.173Z,20.56
2018-11-23T11:59:19.515Z,20.24
2018-11-23T12:00:19.463Z,19.76
2018-11-23T12:02:12.773Z,20.18
2018-11-23T12:03:12.748Z,20.56
2018-11-23T12:05:06.086Z,20.90
2018-11-23T12:06:06.050Z,20.87
2018-11-23T12:07:59.362Z,20.59
2018-11-23T12:08:59.380Z,20.10
2018-11-23T12:10:52.663Z,20.34
2018-11-23T12:11:52.623Z,20.31
2018-11-23T12:13:45.458Z,20.43
2018-11-23T12:14:45.419Z,20.34
2018-11-23T12:16:38.774Z,20.21
2018-11-23T12:17:38.696Z,20.16
2018-11-23T12:19:32.015Z,20.18
2018-11-23T12:20:31.986Z,19.88
2018-11-23T12:22:25.318Z,19.22
2018-11-23T12:23:25.274Z,18.62
2018-11-23T12:25:18.608Z,19.12
2018-11-23T12:26:18.560Z,18.78
2018-11-23T12:28:11.409Z,19.00
2018-11-23T12:29:11.364Z,19.33
2018-11-23T12:31:04.698Z,19.51
2018-11-23T12:32:04.639Z,19.69
2018-11-23T12:33:57.983Z,19.64
2018-11-23T12:34:57.933Z,19.64
2018-11-23T12:36:51.273Z,19.41
2018-11-23T12:37:51.223Z,19.67
2018-11-23T12:39:44.558Z,19.08
2018-11-23T12:40:44.504Z,19.19
2018-11-23T12:42:37.342Z,19.22
2018-11-23T12:43:37.282Z,18.60
2018-11-23T12:45:30.111Z,18.10
2018-11-23T12:46:30.085Z,18.22
2018-11-23T12:48:23.411Z,18.95
2018-11-23T12:49:23.359Z,18.78
2018-11-23T12:51:16.663Z,19.08
2018-11-23T12:52:16.634Z,19.27
2018-11-23T12:54:09.985Z,19.21
2018-11-23T12:55:09.928Z,19.12
2018-11-23T12:57:03.238Z,18.31
2018-11-23T12:58:03.208Z,18.29
2018-11-23T12:59:56.538Z,18.75
2018-11-23T13:00:56.490Z,18.98
2018-11-23T13:02:49.793Z,19.26
2018-11-23T13:03:49.756Z,19.30
2018-11-23T13:05:43.120Z,19.21
2018-11-23T13:06:43.046Z,19.04
2018-11-23T13:08:36.370Z,18.92
2018-11-23T13:09:36.325Z,18.55
2018-11-23T13:11:29.626Z,18.10
2018-11-23T13:12:29.590Z,16.99
2018-11-23T13:14:22.941Z,16.32
2018-11-23T13:15:22.890Z,15.84
2018-11-23T13:17:16.201Z,15.64
2018-11-23T13:18:16.167Z,15.58
2018-11-23T13:20:08.997Z,15.79
2018-11-23T13:21:08.945Z,15.86
2018-11-23T13:23:02.237Z,15.94
2018-11-23T13:24:02.211Z,15.58
2018-11-23T13:25:55.540Z,15.88
2018-11-23T13:26:55.479Z,15.98
2018-11-23T13:28:48.810Z,16.32
2018-11-23T13:29:48.743Z,16.39
2018-11-23T13:31:42.053Z,16.66
2018-11-23T13:32:42.017Z,16.47
2018-11-23T13:34:35.356Z,16.42
2018-11-23T13:35:35.302Z,16.56
2018-11-23T13:37:28.119Z,16.41
2018-11-23T13:38:28.081Z,16.12
2018-11-23T13:40:20.904Z,16.01
2018-11-23T13:41:20.852Z,16.00
2018-11-23T13:43:14.152Z,15.67
2018-11-23T13:44:14.118Z,15.62
2018-11-23T13:46:07.459Z,15.40
2018-11-23T13:47:07.396Z,15.27
2018-11-23T13:49:00.198Z,15.00
2018-11-23T13:50:00.172Z,14.69
2018-11-23T13:51:53.507Z,14.45
2018-11-23T13:52:53.443Z,14.17
2018-11-23T13:54:46.778Z,14.00
2018-11-23T13:55:46.723Z,13.90
2018-11-23T13:57:39.528Z,13.68
2018-11-23T13:58:39.540Z,13.57
2018-11-23T14:00:32.327Z,13.38
2018-11-23T14:01:32.264Z,13.31
2018-11-23T14:03:25.069Z,13.18
2018-11-23T14:04:25.043Z,13.13
2018-11-23T14:06:18.371Z,13.00
2018-11-23T14:07:18.364Z,12.98
2018-11-23T14:09:11.140Z,12.80
2018-11-23T14:10:11.088Z,12.79
2018-11-23T14:12:03.923Z,12.62
2018-11-23T14:13:11.005Z,12.65
2018-11-23T14:14:56.734Z,12.45
2018-11-23T14:15:56.702Z,12.36
2018-11-23T14:17:50.077Z,12.37
2018-11-23T14:18:49.963Z,12.25
2018-11-23T14:20:43.054Z,12.20
2018-11-23T14:21:42.731Z,12.15
2018-11-23T14:23:35.548Z,12.07
2018-11-23T14:24:35.495Z,11.99
2018-11-23T14:26:28.317Z,11.90
2018-11-23T14:27:28.252Z,11.84
2018-11-23T14:29:21.060Z,11.75
2018-11-23T14:30:21.020Z,11.80
2018-11-23T14:32:14.373Z,11.54
2018-11-23T14:33:14.300Z,11.57
2018-11-23T14:35:07.117Z,11.23
2018-11-23T14:36:07.073Z,11.29
2018-11-23T14:37:59.898Z,11.30
2018-11-23T14:38:59.830Z,11.22
2018-11-23T14:40:53.125Z,11.15
2018-11-23T14:41:53.105Z,11.15
2018-11-23T14:43:45.915Z,11.11
2018-11-23T14:44:45.858Z,10.93
2018-11-23T14:46:38.662Z,10.97
2018-11-23T14:47:38.629Z,10.92
2018-11-23T14:49:31.460Z,10.90
2018-11-23T14:50:31.410Z,10.96
2018-11-23T14:52:24.716Z,10.87
2018-11-23T14:53:24.669Z,10.79
2018-11-23T14:55:17.485Z,10.92
2018-11-23T14:56:17.419Z,10.82
2018-11-23T14:58:10.750Z,10.71
2018-11-23T14:59:10.674Z,10.64
2018-11-23T15:01:03.484Z,10.56
2018-11-23T15:02:03.451Z,10.60
2018-11-23T15:03:56.269Z,10.54
2018-11-23T15:04:56.209Z,10.44
2018-11-23T15:06:49.021Z,10.41
2018-11-23T15:07:48.982Z,10.42
2018-11-23T15:09:41.795Z,10.25
2018-11-23T15:10:41.734Z,10.30
2018-11-23T15:12:34.541Z,10.25
2018-11-23T15:13:34.506Z,10.25
2018-11-23T15:15:27.829Z,10.10
2018-11-23T15:16:27.777Z,10.15
2018-11-23T15:18:20.560Z,10.10
2018-11-23T15:19:20.521Z,10.02
2018-11-23T15:21:34.844Z,10.05
2018-11-23T15:22:13.810Z,9.92
2018-11-23T15:24:07.141Z,9.94
2018-11-23T15:25:07.090Z,9.91
2018-11-23T15:27:00.382Z,9.92
2018-11-23T15:28:00.341Z,9.82
2018-11-23T15:29:53.159Z,9.76
2018-11-23T15:30:53.107Z,9.69
2018-11-23T15:32:45.912Z,9.73
2018-11-23T15:33:45.863Z,9.66
2018-11-23T15:35:38.681Z,9.61
2018-11-23T15:36:38.627Z,9.58
2018-11-23T15:38:31.425Z,9.51
2018-11-23T15:39:31.387Z,9.47
2018-11-23T15:41:24.203Z,9.39
2018-11-23T15:42:24.150Z,9.40
2018-11-23T15:44:16.961Z,9.31
2018-11-23T15:45:16.905Z,9.32
2018-11-23T15:47:10.199Z,9.31
2018-11-23T15:48:10.157Z,9.19
2018-11-23T15:50:02.996Z,9.16
2018-11-23T15:51:02.921Z,9.14
2018-11-23T15:52:55.745Z,9.02
2018-11-23T15:53:55.684Z,9.04
2018-11-23T15:55:49.017Z,8.94
2018-11-23T15:56:48.943Z,8.92
2018-11-23T15:58:42.253Z,8.95
2018-11-23T15:59:42.211Z,8.92
2018-11-23T16:01:35.032Z,8.92
2018-11-23T16:02:34.958Z,8.85
2018-11-23T16:04:27.767Z,8.79
2018-11-23T16:05:27.795Z,8.76
2018-11-23T16:07:20.543Z,8.76
2018-11-23T16:08:20.498Z,8.70
2018-11-23T16:10:13.788Z,8.71
2018-11-23T16:11:13.748Z,8.67
2018-11-23T16:13:11.191Z,8.69
2018-11-23T16:14:06.528Z,8.53
2018-11-23T16:15:59.327Z,8.55
2018-11-23T16:16:59.286Z,8.45
2018-11-23T16:18:52.208Z,8.48
2018-11-23T16:19:52.057Z,8.45
2018-11-23T16:21:44.902Z,8.42
2018-11-23T16:22:44.885Z,8.42
2018-11-23T16:24:38.133Z,8.36
2018-11-23T16:25:38.096Z,8.31
2018-11-23T16:27:31.417Z,8.33
2018-11-23T16:28:31.362Z,8.27
2018-11-23T16:30:24.679Z,8.23
2018-11-23T16:31:24.622Z,8.28
2018-11-23T16:33:17.410Z,8.19
2018-11-23T16:34:17.379Z,8.16
2018-11-23T16:36:10.695Z,8.16
2018-11-23T16:37:10.650Z,8.10
2018-11-23T16:39:03.982Z,8.08
2018-11-23T16:40:03.904Z,8.01
2018-11-23T16:41:57.216Z,8.01
2018-11-23T16:42:57.175Z,8.00
2018-11-23T16:44:49.998Z,7.97
2018-11-23T16:45:49.958Z,7.93
2018-11-23T16:47:42.764Z,7.88
2018-11-23T16:48:42.698Z,7.87
2018-11-23T16:50:35.489Z,7.85
2018-11-23T16:51:35.453Z,7.88
2018-11-23T16:53:28.283Z,7.91
2018-11-23T16:54:28.220Z,7.87
2018-11-23T16:56:21.044Z,7.79
2018-11-23T16:57:20.981Z,7.76
2018-11-23T16:59:14.294Z,7.73
2018-11-23T17:00:14.240Z,7.80
2018-11-23T17:02:07.048Z,7.76
2018-11-23T17:03:07.008Z,7.79
2018-11-23T17:05:00.298Z,7.67
2018-11-23T17:06:00.255Z,7.79
2018-11-23T17:07:53.065Z,7.67
2018-11-23T17:08:53.006Z,7.75
2018-11-23T17:10:46.316Z,7.61
2018-11-23T17:11:46.270Z,7.66
2018-11-23T17:13:39.092Z,7.70
2018-11-23T17:14:39.029Z,7.56
2018-11-23T17:16:31.824Z,7.67
2018-11-23T17:17:31.786Z,7.58
2018-11-23T17:19:25.115Z,7.66
2018-11-23T17:20:25.059Z,7.60
2018-11-23T17:22:17.888Z,7.53
2018-11-23T17:23:17.821Z,7.60
2018-11-23T17:25:10.649Z,7.58
2018-11-23T17:26:10.586Z,7.58
2018-11-23T17:28:03.415Z,7.45
2018-11-23T17:29:03.346Z,7.48
2018-11-23T17:30:56.140Z,7.45
2018-11-23T17:31:56.103Z,7.45
2018-11-23T17:33:49.416Z,7.50
2018-11-23T17:34:49.351Z,7.45
2018-11-23T17:36:42.154Z,7.48
2018-11-23T17:37:42.112Z,7.51
2018-11-23T17:39:34.932Z,7.56
2018-11-23T17:40:34.863Z,7.48
2018-11-23T17:42:27.670Z,7.42
2018-11-23T17:43:27.628Z,7.42
2018-11-23T17:45:20.934Z,7.51
2018-11-23T17:46:20.885Z,7.33
2018-11-23T17:48:13.678Z,7.35
2018-11-23T17:49:13.641Z,7.45
2018-11-23T17:51:06.465Z,7.39
2018-11-23T17:52:06.406Z,7.40
2018-11-23T17:53:59.780Z,7.38
2018-11-23T17:54:59.722Z,7.38
2018-11-23T17:56:53.018Z,7.40
2018-11-23T17:57:52.990Z,7.36
2018-11-23T17:59:46.298Z,7.38
2018-11-23T18:00:46.251Z,7.33
2018-11-23T18:02:39.061Z,7.39
2018-11-23T18:03:39.004Z,7.38
2018-11-23T18:05:31.837Z,7.39
2018-11-23T18:06:31.764Z,7.38
2018-11-23T18:08:24.571Z,7.36
2018-11-23T18:09:24.516Z,7.39
2018-11-23T18:11:17.838Z,7.35
2018-11-23T18:12:17.774Z,7.40
2018-11-23T18:14:11.062Z,7.35
2018-11-23T18:15:11.031Z,7.35
2018-11-23T18:17:04.327Z,7.29
2018-11-23T18:18:04.273Z,7.38
2018-11-23T18:19:57.605Z,7.35
2018-11-23T18:20:57.539Z,7.39
2018-11-23T18:22:50.853Z,7.39
2018-11-23T18:23:50.789Z,7.35
2018-11-23T18:25:44.113Z,7.24
2018-11-23T18:26:44.044Z,7.31
2018-11-23T18:28:36.853Z,7.28
2018-11-23T18:29:36.802Z,7.25
2018-11-23T18:31:30.123Z,7.32
2018-11-23T18:32:30.060Z,7.28
2018-11-23T18:34:22.859Z,7.39
2018-11-23T18:35:22.820Z,7.24
2018-11-23T18:37:15.645Z,7.25
2018-11-23T18:38:15.580Z,7.25
2018-11-23T18:40:08.379Z,7.28
2018-11-23T18:41:08.338Z,7.24
2018-11-23T18:43:01.638Z,7.25
2018-11-23T18:44:01.594Z,7.20
2018-11-23T18:45:54.382Z,7.24
2018-11-23T18:46:54.337Z,7.28
2018-11-23T18:48:47.180Z,7.20
2018-11-23T18:49:47.105Z,7.17
2018-11-23T18:51:39.919Z,7.14
2018-11-23T18:52:39.853Z,7.20
2018-11-23T18:54:32.649Z,7.15
2018-11-23T18:55:32.610Z,7.15
2018-11-23T18:57:25.439Z,7.14
2018-11-23T18:58:25.380Z,7.14